sensor_id;sensor_type;location;lat;lon;timestamp;P1;durP1;ratioP1;P2;durP2;ratioP2
63005;SDS011;53704;52.532;6.426;2022-07-04T00:00:14;6.28;;;5.53;;
63005;SDS011;53704;52.532;6.426;2022-07-04T00:02:42;7.28;;;5.78;;
63005;SDS011;53704;52.532;6.426;2022-07-04T00:05:09;10.35;;;5.13;;
63005;SDS011;53704;52.532;6.426;2022-07-04T00:07:36;6.20;;;5.70;;
63005;SDS011;53704;52.532;6.426;2022-07-04T00:10:02;11.60;;;6.18;;
63005;SDS011;53704;52.532;6.426;2022-07-04T00:12:29;8.85;;;6.13;;
63005;SDS011;53704;52.532;6.426;2022-07-04T00:14:54;6.63;;;5.82;;
63005;SDS011;53704;52.532;6.426;2022-07-04T00:17:19;7.32;;;5.82;;
63005;SDS011;53704;52.532;6.426;2022-07-04T00:19:45;8.80;;;5.93;;
63005;SDS011;53704;52.532;6.426;2022-07-04T00:22:10;9.48;;;5.90;;
63005;SDS011;53704;52.532;6.426;2022-07-04T00:24:36;6.18;;;5.75;;
63005;SDS011;53704;52.532;6.426;2022-07-04T00:27:01;7.22;;;5.85;;
63005;SDS011;53704;52.532;6.426;2022-07-04T00:29:27;6.25;;;5.53;;
63005;SDS011;53704;52.532;6.426;2022-07-04T00:31:52;6.18;;;5.57;;
63005;SDS011;53704;52.532;6.426;2022-07-04T00:34:18;12.20;;;5.97;;
63005;SDS011;53704;52.532;6.426;2022-07-04T00:36:44;6.88;;;5.55;;
63005;SDS011;53704;52.532;6.426;2022-07-04T00:39:09;6.18;;;5.55;;
63005;SDS011;53704;52.532;6.426;2022-07-04T00:41:34;5.07;;;4.68;;
63005;SDS011;53704;52.532;6.426;2022-07-04T00:44:04;13.65;;;5.45;;
63005;SDS011;53704;52.532;6.426;2022-07-04T00:46:31;5.53;;;4.57;;
63005;SDS011;53704;52.532;6.426;2022-07-04T00:48:57;5.07;;;4.15;;
63005;SDS011;53704;52.532;6.426;2022-07-04T00:51:23;10.80;;;4.70;;
63005;SDS011;53704;52.532;6.426;2022-07-04T00:53:49;10.75;;;5.15;;
63005;SDS011;53704;52.532;6.426;2022-07-04T00:56:16;8.82;;;4.45;;
63005;SDS011;53704;52.532;6.426;2022-07-04T00:58:41;9.32;;;4.80;;
63005;SDS011;53704;52.532;6.426;2022-07-04T01:01:07;8.80;;;5.00;;
63005;SDS011;53704;52.532;6.426;2022-07-04T01:03:32;5.80;;;4.25;;
63005;SDS011;53704;52.532;6.426;2022-07-04T01:05:57;6.97;;;4.80;;
63005;SDS011;53704;52.532;6.426;2022-07-04T01:08:25;8.48;;;4.55;;
63005;SDS011;53704;52.532;6.426;2022-07-04T01:10:50;7.07;;;4.60;;
63005;SDS011;53704;52.532;6.426;2022-07-04T01:13:22;10.85;;;4.68;;
63005;SDS011;53704;52.532;6.426;2022-07-04T01:15:48;4.32;;;4.00;;
63005;SDS011;53704;52.532;6.426;2022-07-04T01:18:18;5.80;;;4.40;;
63005;SDS011;53704;52.532;6.426;2022-07-04T01:20:44;5.03;;;4.50;;
63005;SDS011;53704;52.532;6.426;2022-07-04T01:23:09;7.65;;;4.85;;
63005;SDS011;53704;52.532;6.426;2022-07-04T01:25:35;4.78;;;4.40;;
63005;SDS011;53704;52.532;6.426;2022-07-04T01:28:01;5.35;;;4.70;;
63005;SDS011;53704;52.532;6.426;2022-07-04T01:30:27;5.40;;;4.85;;
63005;SDS011;53704;52.532;6.426;2022-07-04T01:32:53;5.45;;;5.00;;
63005;SDS011;53704;52.532;6.426;2022-07-04T01:35:19;5.85;;;5.03;;
63005;SDS011;53704;52.532;6.426;2022-07-04T01:37:45;4.95;;;4.57;;
63005;SDS011;53704;52.532;6.426;2022-07-04T01:40:11;7.38;;;4.88;;
63005;SDS011;53704;52.532;6.426;2022-07-04T01:42:40;5.57;;;4.80;;
63005;SDS011;53704;52.532;6.426;2022-07-04T01:45:06;5.13;;;4.63;;
63005;SDS011;53704;52.532;6.426;2022-07-04T01:47:33;4.85;;;4.38;;
63005;SDS011;53704;52.532;6.426;2022-07-04T01:50:00;9.30;;;5.13;;
63005;SDS011;53704;52.532;6.426;2022-07-04T01:52:25;10.07;;;5.50;;
63005;SDS011;53704;52.532;6.426;2022-07-04T01:54:51;5.35;;;4.85;;
63005;SDS011;53704;52.532;6.426;2022-07-04T01:57:17;5.30;;;4.82;;
63005;SDS011;53704;52.532;6.426;2022-07-04T01:59:42;4.55;;;3.97;;
63005;SDS011;53704;52.532;6.426;2022-07-04T02:02:26;5.45;;;4.72;;
63005;SDS011;53704;52.532;6.426;2022-07-04T02:04:52;8.45;;;4.50;;
63005;SDS011;53704;52.532;6.426;2022-07-04T02:07:17;7.05;;;4.65;;
63005;SDS011;53704;52.532;6.426;2022-07-04T02:09:43;5.55;;;4.65;;
63005;SDS011;53704;52.532;6.426;2022-07-04T02:12:08;5.72;;;4.55;;
63005;SDS011;53704;52.532;6.426;2022-07-04T02:14:52;8.38;;;4.03;;
63005;SDS011;53704;52.532;6.426;2022-07-04T02:17:18;4.50;;;4.20;;
63005;SDS011;53704;52.532;6.426;2022-07-04T02:19:44;9.13;;;4.47;;
63005;SDS011;53704;52.532;6.426;2022-07-04T02:22:09;7.88;;;4.07;;
63005;SDS011;53704;52.532;6.426;2022-07-04T02:24:35;5.57;;;4.40;;
63005;SDS011;53704;52.532;6.426;2022-07-04T02:27:00;4.97;;;4.63;;
63005;SDS011;53704;52.532;6.426;2022-07-04T02:29:26;7.80;;;4.40;;
63005;SDS011;53704;52.532;6.426;2022-07-04T02:31:51;7.53;;;3.95;;
63005;SDS011;53704;52.532;6.426;2022-07-04T02:34:17;8.88;;;4.60;;
63005;SDS011;53704;52.532;6.426;2022-07-04T02:36:42;6.45;;;4.20;;
63005;SDS011;53704;52.532;6.426;2022-07-04T02:39:08;10.80;;;4.90;;
63005;SDS011;53704;52.532;6.426;2022-07-04T02:41:33;10.30;;;4.70;;
63005;SDS011;53704;52.532;6.426;2022-07-04T02:43:59;5.93;;;5.45;;
63005;SDS011;53704;52.532;6.426;2022-07-04T02:46:25;4.82;;;4.47;;
63005;SDS011;53704;52.532;6.426;2022-07-04T02:48:50;5.35;;;4.85;;
63005;SDS011;53704;52.532;6.426;2022-07-04T02:51:16;7.80;;;5.13;;
63005;SDS011;53704;52.532;6.426;2022-07-04T02:53:41;8.38;;;4.95;;
63005;SDS011;53704;52.532;6.426;2022-07-04T02:56:07;6.15;;;5.25;;
63005;SDS011;53704;52.532;6.426;2022-07-04T02:58:33;7.55;;;4.72;;
63005;SDS011;53704;52.532;6.426;2022-07-04T03:00:58;5.25;;;4.75;;
63005;SDS011;53704;52.532;6.426;2022-07-04T03:03:24;6.00;;;5.32;;
63005;SDS011;53704;52.532;6.426;2022-07-04T03:05:50;6.22;;;5.05;;
63005;SDS011;53704;52.532;6.426;2022-07-04T03:08:15;5.82;;;5.35;;
63005;SDS011;53704;52.532;6.426;2022-07-04T03:10:41;6.32;;;5.82;;
63005;SDS011;53704;52.532;6.426;2022-07-04T03:13:06;10.82;;;5.70;;
63005;SDS011;53704;52.532;6.426;2022-07-04T03:15:31;7.40;;;5.40;;
63005;SDS011;53704;52.532;6.426;2022-07-04T03:17:57;8.55;;;5.43;;
63005;SDS011;53704;52.532;6.426;2022-07-04T03:20:23;12.20;;;7.18;;
63005;SDS011;53704;52.532;6.426;2022-07-04T03:22:48;7.40;;;6.75;;
63005;SDS011;53704;52.532;6.426;2022-07-04T03:25:14;13.55;;;6.57;;
63005;SDS011;53704;52.532;6.426;2022-07-04T03:27:39;7.53;;;6.50;;
63005;SDS011;53704;52.532;6.426;2022-07-04T03:30:05;7.40;;;6.15;;
63005;SDS011;53704;52.532;6.426;2022-07-04T03:32:31;7.22;;;6.50;;
63005;SDS011;53704;52.532;6.426;2022-07-04T03:34:56;13.20;;;8.02;;
63005;SDS011;53704;52.532;6.426;2022-07-04T03:37:22;9.52;;;7.15;;
63005;SDS011;53704;52.532;6.426;2022-07-04T03:39:47;8.13;;;7.38;;
63005;SDS011;53704;52.532;6.426;2022-07-04T03:42:13;12.18;;;7.30;;
63005;SDS011;53704;52.532;6.426;2022-07-04T03:44:38;13.27;;;8.65;;
63005;SDS011;53704;52.532;6.426;2022-07-04T03:47:04;8.38;;;7.18;;
63005;SDS011;53704;52.532;6.426;2022-07-04T03:49:29;7.03;;;6.53;;
63005;SDS011;53704;52.532;6.426;2022-07-04T03:51:54;11.05;;;6.78;;
63005;SDS011;53704;52.532;6.426;2022-07-04T03:54:20;7.22;;;6.47;;
63005;SDS011;53704;52.532;6.426;2022-07-04T03:56:45;8.45;;;7.18;;
63005;SDS011;53704;52.532;6.426;2022-07-04T03:59:11;8.27;;;7.68;;
63005;SDS011;53704;52.532;6.426;2022-07-04T04:01:36;10.05;;;7.05;;
63005;SDS011;53704;52.532;6.426;2022-07-04T04:04:02;9.65;;;6.95;;
63005;SDS011;53704;52.532;6.426;2022-07-04T04:06:46;10.67;;;7.10;;
63005;SDS011;53704;52.532;6.426;2022-07-04T04:09:11;7.80;;;7.00;;
63005;SDS011;53704;52.532;6.426;2022-07-04T04:11:41;7.45;;;6.93;;
63005;SDS011;53704;52.532;6.426;2022-07-04T04:14:07;9.52;;;6.63;;
63005;SDS011;53704;52.532;6.426;2022-07-04T04:16:33;11.60;;;7.65;;
63005;SDS011;53704;52.532;6.426;2022-07-04T04:18:58;7.15;;;6.65;;
63005;SDS011;53704;52.532;6.426;2022-07-04T04:21:24;8.80;;;7.45;;
63005;SDS011;53704;52.532;6.426;2022-07-04T04:23:49;14.07;;;7.25;;
63005;SDS011;53704;52.532;6.426;2022-07-04T04:26:15;13.60;;;8.52;;
63005;SDS011;53704;52.532;6.426;2022-07-04T04:28:41;10.65;;;7.28;;
63005;SDS011;53704;52.532;6.426;2022-07-04T04:31:08;14.48;;;7.43;;
63005;SDS011;53704;52.532;6.426;2022-07-04T04:33:34;10.55;;;6.80;;
63005;SDS011;53704;52.532;6.426;2022-07-04T04:36:00;11.95;;;7.53;;
63005;SDS011;53704;52.532;6.426;2022-07-04T04:38:25;8.23;;;7.35;;
63005;SDS011;53704;52.532;6.426;2022-07-04T04:40:51;8.57;;;7.65;;
63005;SDS011;53704;52.532;6.426;2022-07-04T04:43:16;8.00;;;7.20;;
63005;SDS011;53704;52.532;6.426;2022-07-04T04:45:41;10.68;;;8.30;;
63005;SDS011;53704;52.532;6.426;2022-07-04T04:48:07;8.80;;;6.32;;
63005;SDS011;53704;52.532;6.426;2022-07-04T04:50:32;14.93;;;6.75;;
63005;SDS011;53704;52.532;6.426;2022-07-04T04:52:58;11.98;;;6.97;;
63005;SDS011;53704;52.532;6.426;2022-07-04T04:55:23;7.82;;;6.20;;
63005;SDS011;53704;52.532;6.426;2022-07-04T04:57:48;14.60;;;6.60;;
63005;SDS011;53704;52.532;6.426;2022-07-04T05:00:14;13.88;;;6.15;;
63005;SDS011;53704;52.532;6.426;2022-07-04T05:02:39;6.85;;;6.18;;
63005;SDS011;53704;52.532;6.426;2022-07-04T05:05:05;9.02;;;6.78;;
63005;SDS011;53704;52.532;6.426;2022-07-04T05:07:31;6.53;;;5.93;;
63005;SDS011;53704;52.532;6.426;2022-07-04T05:09:57;9.60;;;6.13;;
63005;SDS011;53704;52.532;6.426;2022-07-04T05:12:24;12.15;;;5.97;;
63005;SDS011;53704;52.532;6.426;2022-07-04T05:14:50;6.13;;;4.80;;
63005;SDS011;53704;52.532;6.426;2022-07-04T05:17:16;10.38;;;5.93;;
63005;SDS011;53704;52.532;6.426;2022-07-04T05:19:42;9.43;;;6.07;;
63005;SDS011;53704;52.532;6.426;2022-07-04T05:22:07;14.40;;;5.70;;
63005;SDS011;53704;52.532;6.426;2022-07-04T05:24:32;9.50;;;5.32;;
63005;SDS011;53704;52.532;6.426;2022-07-04T05:26:58;7.25;;;5.65;;
63005;SDS011;53704;52.532;6.426;2022-07-04T05:29:23;7.72;;;5.93;;
63005;SDS011;53704;52.532;6.426;2022-07-04T05:31:48;11.95;;;5.80;;
63005;SDS011;53704;52.532;6.426;2022-07-04T05:34:14;11.18;;;6.70;;
63005;SDS011;53704;52.532;6.426;2022-07-04T05:36:39;11.68;;;7.03;;
63005;SDS011;53704;52.532;6.426;2022-07-04T05:39:04;20.15;;;6.90;;
63005;SDS011;53704;52.532;6.426;2022-07-04T05:41:30;10.18;;;6.22;;
63005;SDS011;53704;52.532;6.426;2022-07-04T05:43:55;13.10;;;5.72;;
63005;SDS011;53704;52.532;6.426;2022-07-04T05:46:21;9.05;;;6.80;;
63005;SDS011;53704;52.532;6.426;2022-07-04T05:48:46;15.00;;;6.70;;
63005;SDS011;53704;52.532;6.426;2022-07-04T05:51:12;10.93;;;7.10;;
63005;SDS011;53704;52.532;6.426;2022-07-04T05:53:37;7.80;;;7.10;;
63005;SDS011;53704;52.532;6.426;2022-07-04T05:56:02;10.85;;;6.30;;
63005;SDS011;53704;52.532;6.426;2022-07-04T05:58:28;13.60;;;6.07;;
63005;SDS011;53704;52.532;6.426;2022-07-04T06:00:53;9.93;;;5.82;;
63005;SDS011;53704;52.532;6.426;2022-07-04T06:03:19;12.15;;;6.10;;
63005;SDS011;53704;52.532;6.426;2022-07-04T06:05:44;9.88;;;5.80;;
63005;SDS011;53704;52.532;6.426;2022-07-04T06:08:10;13.30;;;6.10;;
63005;SDS011;53704;52.532;6.426;2022-07-04T06:10:36;8.73;;;5.70;;
63005;SDS011;53704;52.532;6.426;2022-07-04T06:13:01;5.50;;;5.03;;
63005;SDS011;53704;52.532;6.426;2022-07-04T06:15:27;7.18;;;5.97;;
63005;SDS011;53704;52.532;6.426;2022-07-04T06:17:52;9.40;;;5.28;;
63005;SDS011;53704;52.532;6.426;2022-07-04T06:20:17;12.05;;;5.30;;
63005;SDS011;53704;52.532;6.426;2022-07-04T06:22:44;11.95;;;5.53;;
63005;SDS011;53704;52.532;6.426;2022-07-04T06:25:15;14.35;;;5.47;;
63005;SDS011;53704;52.532;6.426;2022-07-04T06:27:43;16.38;;;6.00;;
63005;SDS011;53704;52.532;6.426;2022-07-04T06:30:09;11.32;;;6.10;;
63005;SDS011;53704;52.532;6.426;2022-07-04T06:32:45;14.93;;;5.65;;
63005;SDS011;53704;52.532;6.426;2022-07-04T06:35:11;8.13;;;5.50;;
63005;SDS011;53704;52.532;6.426;2022-07-04T06:37:56;11.23;;;4.90;;
63005;SDS011;53704;52.532;6.426;2022-07-04T06:40:22;9.23;;;5.32;;
63005;SDS011;53704;52.532;6.426;2022-07-04T06:42:48;12.95;;;5.22;;
63005;SDS011;53704;52.532;6.426;2022-07-04T06:45:15;8.93;;;4.63;;
63005;SDS011;53704;52.532;6.426;2022-07-04T06:47:40;20.15;;;5.35;;
63005;SDS011;53704;52.532;6.426;2022-07-04T06:50:06;15.75;;;5.85;;
63005;SDS011;53704;52.532;6.426;2022-07-04T06:52:32;12.55;;;5.05;;
63005;SDS011;53704;52.532;6.426;2022-07-04T06:54:59;13.35;;;5.03;;
63005;SDS011;53704;52.532;6.426;2022-07-04T06:57:24;16.75;;;4.63;;
63005;SDS011;53704;52.532;6.426;2022-07-04T06:59:50;12.27;;;5.05;;
63005;SDS011;53704;52.532;6.426;2022-07-04T07:02:15;12.93;;;4.80;;
63005;SDS011;53704;52.532;6.426;2022-07-04T07:04:41;18.65;;;5.55;;
63005;SDS011;53704;52.532;6.426;2022-07-04T07:07:07;10.48;;;4.70;;
63005;SDS011;53704;52.532;6.426;2022-07-04T07:09:33;14.10;;;4.88;;
63005;SDS011;53704;52.532;6.426;2022-07-04T07:11:59;7.90;;;3.97;;
63005;SDS011;53704;52.532;6.426;2022-07-04T07:14:24;13.80;;;5.10;;
63005;SDS011;53704;52.532;6.426;2022-07-04T07:16:50;11.25;;;5.13;;
63005;SDS011;53704;52.532;6.426;2022-07-04T07:19:15;16.38;;;5.45;;
63005;SDS011;53704;52.532;6.426;2022-07-04T07:21:40;11.85;;;4.88;;
63005;SDS011;53704;52.532;6.426;2022-07-04T07:24:06;23.95;;;5.43;;
63005;SDS011;53704;52.532;6.426;2022-07-04T07:26:31;17.70;;;4.63;;
63005;SDS011;53704;52.532;6.426;2022-07-04T07:28:57;23.33;;;5.95;;
63005;SDS011;53704;52.532;6.426;2022-07-04T07:31:22;19.80;;;5.53;;
63005;SDS011;53704;52.532;6.426;2022-07-04T07:33:48;14.07;;;4.60;;
63005;SDS011;53704;52.532;6.426;2022-07-04T07:36:13;14.68;;;5.70;;
63005;SDS011;53704;52.532;6.426;2022-07-04T07:38:38;18.38;;;4.03;;
63005;SDS011;53704;52.532;6.426;2022-07-04T07:41:07;12.32;;;5.00;;
63005;SDS011;53704;52.532;6.426;2022-07-04T07:43:36;11.55;;;4.78;;
63005;SDS011;53704;52.532;6.426;2022-07-04T07:46:04;13.27;;;4.30;;
63005;SDS011;53704;52.532;6.426;2022-07-04T07:48:30;12.45;;;4.70;;
63005;SDS011;53704;52.532;6.426;2022-07-04T07:50:55;13.75;;;4.18;;
63005;SDS011;53704;52.532;6.426;2022-07-04T07:53:21;20.33;;;3.97;;
63005;SDS011;53704;52.532;6.426;2022-07-04T07:55:46;15.27;;;4.40;;
63005;SDS011;53704;52.532;6.426;2022-07-04T07:58:12;15.43;;;4.63;;
63005;SDS011;53704;52.532;6.426;2022-07-04T08:00:37;14.63;;;4.43;;
63005;SDS011;53704;52.532;6.426;2022-07-04T08:03:03;11.27;;;3.20;;
63005;SDS011;53704;52.532;6.426;2022-07-04T08:05:47;21.45;;;3.58;;
63005;SDS011;53704;52.532;6.426;2022-07-04T08:08:14;10.02;;;3.22;;
63005;SDS011;53704;52.532;6.426;2022-07-04T08:10:39;13.60;;;3.10;;
63005;SDS011;53704;52.532;6.426;2022-07-04T08:13:04;11.40;;;3.00;;
63005;SDS011;53704;52.532;6.426;2022-07-04T08:15:31;7.60;;;3.05;;
63005;SDS011;53704;52.532;6.426;2022-07-04T08:17:57;13.18;;;3.20;;
63005;SDS011;53704;52.532;6.426;2022-07-04T08:20:23;7.90;;;3.08;;
63005;SDS011;53704;52.532;6.426;2022-07-04T08:22:49;10.80;;;3.50;;
63005;SDS011;53704;52.532;6.426;2022-07-04T08:25:14;15.38;;;3.53;;
63005;SDS011;53704;52.532;6.426;2022-07-04T08:27:42;13.65;;;3.22;;
63005;SDS011;53704;52.532;6.426;2022-07-04T08:30:08;13.88;;;2.95;;
63005;SDS011;53704;52.532;6.426;2022-07-04T08:32:34;8.77;;;3.05;;
63005;SDS011;53704;52.532;6.426;2022-07-04T08:34:59;12.73;;;2.95;;
63005;SDS011;53704;52.532;6.426;2022-07-04T08:37:24;18.30;;;2.85;;
63005;SDS011;53704;52.532;6.426;2022-07-04T08:39:50;18.98;;;2.83;;
63005;SDS011;53704;52.532;6.426;2022-07-04T08:42:17;5.47;;;2.20;;
63005;SDS011;53704;52.532;6.426;2022-07-04T08:44:47;8.18;;;2.63;;
63005;SDS011;53704;52.532;6.426;2022-07-04T08:47:23;6.43;;;2.70;;
63005;SDS011;53704;52.532;6.426;2022-07-04T08:49:59;13.45;;;2.70;;
63005;SDS011;53704;52.532;6.426;2022-07-04T08:52:40;6.88;;;2.38;;
63005;SDS011;53704;52.532;6.426;2022-07-04T08:55:08;18.15;;;4.13;;
63005;SDS011;53704;52.532;6.426;2022-07-04T08:57:53;13.05;;;3.08;;
63005;SDS011;53704;52.532;6.426;2022-07-04T09:00:38;11.70;;;2.95;;
63005;SDS011;53704;52.532;6.426;2022-07-04T09:03:04;11.52;;;3.40;;
63005;SDS011;53704;52.532;6.426;2022-07-04T09:05:30;7.68;;;2.75;;
63005;SDS011;53704;52.532;6.426;2022-07-04T09:07:59;6.50;;;2.15;;
63005;SDS011;53704;52.532;6.426;2022-07-04T09:10:26;10.73;;;2.60;;
63005;SDS011;53704;52.532;6.426;2022-07-04T09:12:52;14.45;;;3.15;;
63005;SDS011;53704;52.532;6.426;2022-07-04T09:15:18;9.32;;;2.50;;
63005;SDS011;53704;52.532;6.426;2022-07-04T09:17:44;14.65;;;4.28;;
63005;SDS011;53704;52.532;6.426;2022-07-04T09:20:18;13.30;;;2.67;;
63005;SDS011;53704;52.532;6.426;2022-07-04T09:22:45;8.85;;;2.75;;
63005;SDS011;53704;52.532;6.426;2022-07-04T09:25:11;4.70;;;1.58;;
63005;SDS011;53704;52.532;6.426;2022-07-04T09:27:39;6.30;;;1.70;;
63005;SDS011;53704;52.532;6.426;2022-07-04T09:30:07;10.65;;;1.60;;
63005;SDS011;53704;52.532;6.426;2022-07-04T09:35:04;3.40;;;1.30;;
63005;SDS011;53704;52.532;6.426;2022-07-04T09:37:34;9.20;;;2.15;;
63005;SDS011;53704;52.532;6.426;2022-07-04T09:40:03;7.72;;;1.83;;
63005;SDS011;53704;52.532;6.426;2022-07-04T09:42:41;3.17;;;1.55;;
63005;SDS011;53704;52.532;6.426;2022-07-04T09:45:08;7.97;;;2.17;;
63005;SDS011;53704;52.532;6.426;2022-07-04T09:47:36;5.05;;;2.00;;
63005;SDS011;53704;52.532;6.426;2022-07-04T09:52:31;4.25;;;1.40;;
63005;SDS011;53704;52.532;6.426;2022-07-04T09:55:01;5.15;;;1.35;;
63005;SDS011;53704;52.532;6.426;2022-07-04T09:57:30;4.68;;;1.63;;
63005;SDS011;53704;52.532;6.426;2022-07-04T09:59:57;8.77;;;1.85;;
63005;SDS011;53704;52.532;6.426;2022-07-04T10:02:41;3.30;;;1.55;;
63005;SDS011;53704;52.532;6.426;2022-07-04T10:05:07;3.92;;;1.50;;
63005;SDS011;53704;52.532;6.426;2022-07-04T10:07:36;4.93;;;2.03;;
63005;SDS011;53704;52.532;6.426;2022-07-04T10:10:20;7.78;;;1.42;;
63005;SDS011;53704;52.532;6.426;2022-07-04T10:12:56;3.50;;;1.70;;
63005;SDS011;53704;52.532;6.426;2022-07-04T10:15:24;4.40;;;1.17;;
63005;SDS011;53704;52.532;6.426;2022-07-04T10:17:49;3.97;;;1.38;;
63005;SDS011;53704;52.532;6.426;2022-07-04T10:20:15;4.68;;;1.70;;
63005;SDS011;53704;52.532;6.426;2022-07-04T10:22:41;9.50;;;1.85;;
63005;SDS011;53704;52.532;6.426;2022-07-04T10:25:07;2.47;;;1.60;;
63005;SDS011;53704;52.532;6.426;2022-07-04T10:27:34;4.13;;;1.80;;
63005;SDS011;53704;52.532;6.426;2022-07-04T10:29:59;3.53;;;1.80;;
63005;SDS011;53704;52.532;6.426;2022-07-04T10:32:27;7.53;;;1.98;;
63005;SDS011;53704;52.532;6.426;2022-07-04T10:34:54;3.00;;;1.50;;
63005;SDS011;53704;52.532;6.426;2022-07-04T10:37:19;4.53;;;1.67;;
63005;SDS011;53704;52.532;6.426;2022-07-04T10:39:46;9.18;;;1.98;;
63005;SDS011;53704;52.532;6.426;2022-07-04T10:42:21;4.57;;;1.80;;
63005;SDS011;53704;52.532;6.426;2022-07-04T10:44:50;5.90;;;1.40;;
63005;SDS011;53704;52.532;6.426;2022-07-04T10:47:23;11.45;;;2.40;;
63005;SDS011;53704;52.532;6.426;2022-07-04T10:49:50;2.70;;;1.58;;
63005;SDS011;53704;52.532;6.426;2022-07-04T10:52:17;3.85;;;1.35;;
63005;SDS011;53704;52.532;6.426;2022-07-04T10:54:43;4.05;;;1.70;;
63005;SDS011;53704;52.532;6.426;2022-07-04T10:59:43;2.95;;;1.17;;
63005;SDS011;53704;52.532;6.426;2022-07-04T11:17:53;2.88;;;1.60;;
63005;SDS011;53704;52.532;6.426;2022-07-04T11:20:23;4.43;;;1.88;;
63005;SDS011;53704;52.532;6.426;2022-07-04T11:22:49;2.33;;;1.25;;
63005;SDS011;53704;52.532;6.426;2022-07-04T11:25:15;6.43;;;1.40;;
63005;SDS011;53704;52.532;6.426;2022-07-04T11:27:41;4.15;;;1.42;;
63005;SDS011;53704;52.532;6.426;2022-07-04T11:30:07;4.50;;;1.23;;
63005;SDS011;53704;52.532;6.426;2022-07-04T11:32:34;6.35;;;1.40;;
63005;SDS011;53704;52.532;6.426;2022-07-04T11:35:01;2.53;;;1.00;;
63005;SDS011;53704;52.532;6.426;2022-07-04T11:37:28;2.90;;;1.17;;
63005;SDS011;53704;52.532;6.426;2022-07-04T11:39:54;7.45;;;1.45;;
63005;SDS011;53704;52.532;6.426;2022-07-04T11:43:05;3.58;;;1.42;;
63005;SDS011;53704;52.532;6.426;2022-07-04T11:45:51;3.25;;;0.98;;
63005;SDS011;53704;52.532;6.426;2022-07-04T11:48:23;2.22;;;1.23;;
63005;SDS011;53704;52.532;6.426;2022-07-04T11:50:49;7.07;;;1.50;;
63005;SDS011;53704;52.532;6.426;2022-07-04T11:53:18;1.15;;;1.05;;
63005;SDS011;53704;52.532;6.426;2022-07-04T11:55:54;3.63;;;1.10;;
63005;SDS011;53704;52.532;6.426;2022-07-04T11:58:21;1.67;;;1.02;;
63005;SDS011;53704;52.532;6.426;2022-07-04T12:00:48;12.55;;;1.40;;
63005;SDS011;53704;52.532;6.426;2022-07-04T12:03:13;1.15;;;1.00;;
63005;SDS011;53704;52.532;6.426;2022-07-04T12:05:39;3.08;;;1.00;;
63005;SDS011;53704;52.532;6.426;2022-07-04T12:08:04;14.35;;;1.23;;
63005;SDS011;53704;52.532;6.426;2022-07-04T12:10:33;4.90;;;0.85;;
63005;SDS011;53704;52.532;6.426;2022-07-04T12:13:03;5.15;;;0.80;;
63005;SDS011;53704;52.532;6.426;2022-07-04T12:15:38;4.10;;;1.00;;
63005;SDS011;53704;52.532;6.426;2022-07-04T12:18:26;4.82;;;0.90;;
63005;SDS011;53704;52.532;6.426;2022-07-04T12:20:56;1.23;;;0.70;;
63005;SDS011;53704;52.532;6.426;2022-07-04T12:26:06;3.97;;;1.17;;
63005;SDS011;53704;52.532;6.426;2022-07-04T12:28:35;4.45;;;0.93;;
63005;SDS011;53704;52.532;6.426;2022-07-04T12:31:04;1.38;;;1.00;;
63005;SDS011;53704;52.532;6.426;2022-07-04T12:33:29;1.40;;;0.88;;
63005;SDS011;53704;52.532;6.426;2022-07-04T12:36:02;3.80;;;1.00;;
63005;SDS011;53704;52.532;6.426;2022-07-04T12:43:22;1.63;;;1.25;;
63005;SDS011;53704;52.532;6.426;2022-07-04T12:45:53;3.88;;;1.00;;
63005;SDS011;53704;52.532;6.426;2022-07-04T12:48:27;2.55;;;1.30;;
63005;SDS011;53704;52.532;6.426;2022-07-04T12:50:55;4.57;;;0.90;;
63005;SDS011;53704;52.532;6.426;2022-07-04T12:53:37;7.35;;;0.90;;
63005;SDS011;53704;52.532;6.426;2022-07-04T12:56:04;8.90;;;1.10;;
63005;SDS011;53704;52.532;6.426;2022-07-04T12:58:29;10.93;;;1.10;;
63005;SDS011;53704;52.532;6.426;2022-07-04T13:00:56;5.97;;;0.98;;
63005;SDS011;53704;52.532;6.426;2022-07-04T13:03:21;2.88;;;1.00;;
63005;SDS011;53704;52.532;6.426;2022-07-04T13:05:48;1.80;;;1.30;;
63005;SDS011;53704;52.532;6.426;2022-07-04T13:08:14;1.85;;;1.20;;
63005;SDS011;53704;52.532;6.426;2022-07-04T13:10:40;2.08;;;1.17;;
63005;SDS011;53704;52.532;6.426;2022-07-04T13:13:05;2.75;;;1.10;;
63005;SDS011;53704;52.532;6.426;2022-07-04T13:15:31;3.75;;;0.90;;
63005;SDS011;53704;52.532;6.426;2022-07-04T13:17:56;4.47;;;1.00;;
63005;SDS011;53704;52.532;6.426;2022-07-04T13:20:22;1.65;;;1.15;;
63005;SDS011;53704;52.532;6.426;2022-07-04T13:22:47;6.93;;;1.40;;
63005;SDS011;53704;52.532;6.426;2022-07-04T13:25:13;4.10;;;1.00;;
63005;SDS011;53704;52.532;6.426;2022-07-04T13:27:38;3.00;;;1.30;;
63005;SDS011;53704;52.532;6.426;2022-07-04T13:30:04;2.30;;;1.02;;
63005;SDS011;53704;52.532;6.426;2022-07-04T13:32:30;2.17;;;0.85;;
63005;SDS011;53704;52.532;6.426;2022-07-04T13:34:55;1.90;;;1.10;;
63005;SDS011;53704;52.532;6.426;2022-07-04T13:37:21;5.20;;;0.98;;
63005;SDS011;53704;52.532;6.426;2022-07-04T13:39:46;2.38;;;1.00;;
63005;SDS011;53704;52.532;6.426;2022-07-04T13:42:12;1.30;;;0.90;;
63005;SDS011;53704;52.532;6.426;2022-07-04T13:44:38;0.75;;;0.70;;
63005;SDS011;53704;52.532;6.426;2022-07-04T13:47:03;5.47;;;1.00;;
63005;SDS011;53704;52.532;6.426;2022-07-04T13:49:29;2.08;;;0.70;;
63005;SDS011;53704;52.532;6.426;2022-07-04T13:51:54;3.47;;;1.20;;
63005;SDS011;53704;52.532;6.426;2022-07-04T13:54:20;2.58;;;1.00;;
63005;SDS011;53704;52.532;6.426;2022-07-04T13:56:46;2.25;;;1.00;;
63005;SDS011;53704;52.532;6.426;2022-07-04T13:59:12;2.25;;;0.90;;
63005;SDS011;53704;52.532;6.426;2022-07-04T14:01:37;5.32;;;1.10;;
63005;SDS011;53704;52.532;6.426;2022-07-04T14:04:03;3.03;;;0.98;;
63005;SDS011;53704;52.532;6.426;2022-07-04T14:06:28;5.68;;;0.80;;
63005;SDS011;53704;52.532;6.426;2022-07-04T14:08:54;2.65;;;1.10;;
63005;SDS011;53704;52.532;6.426;2022-07-04T14:11:20;6.00;;;0.85;;
63005;SDS011;53704;52.532;6.426;2022-07-04T14:13:45;4.90;;;0.93;;
63005;SDS011;53704;52.532;6.426;2022-07-04T14:16:11;1.92;;;0.90;;
63005;SDS011;53704;52.532;6.426;2022-07-04T14:18:36;2.22;;;0.90;;
63005;SDS011;53704;52.532;6.426;2022-07-04T14:21:02;1.48;;;0.98;;
63005;SDS011;53704;52.532;6.426;2022-07-04T14:23:28;4.97;;;1.05;;
63005;SDS011;53704;52.532;6.426;2022-07-04T14:26:07;2.70;;;0.98;;
63005;SDS011;53704;52.532;6.426;2022-07-04T14:28:34;4.25;;;1.08;;
63005;SDS011;53704;52.532;6.426;2022-07-04T14:30:59;3.22;;;0.88;;
63005;SDS011;53704;52.532;6.426;2022-07-04T14:33:25;5.05;;;1.38;;
63005;SDS011;53704;52.532;6.426;2022-07-04T14:35:51;6.80;;;0.95;;
63005;SDS011;53704;52.532;6.426;2022-07-04T14:38:17;4.35;;;0.98;;
63005;SDS011;53704;52.532;6.426;2022-07-04T14:40:43;1.23;;;0.60;;
63005;SDS011;53704;52.532;6.426;2022-07-04T14:43:11;6.47;;;0.98;;
63005;SDS011;53704;52.532;6.426;2022-07-04T14:45:37;10.77;;;1.00;;
63005;SDS011;53704;52.532;6.426;2022-07-04T14:48:03;2.05;;;0.85;;
63005;SDS011;53704;52.532;6.426;2022-07-04T14:50:28;1.42;;;0.68;;
63005;SDS011;53704;52.532;6.426;2022-07-04T14:52:54;0.98;;;0.80;;
63005;SDS011;53704;52.532;6.426;2022-07-04T14:55:19;1.52;;;0.60;;
63005;SDS011;53704;52.532;6.426;2022-07-04T14:57:45;1.48;;;1.13;;
63005;SDS011;53704;52.532;6.426;2022-07-04T15:00:10;2.53;;;1.10;;
63005;SDS011;53704;52.532;6.426;2022-07-04T15:02:36;0.93;;;0.65;;
63005;SDS011;53704;52.532;6.426;2022-07-04T15:05:02;1.60;;;0.90;;
63005;SDS011;53704;52.532;6.426;2022-07-04T15:07:27;3.65;;;0.82;;
63005;SDS011;53704;52.532;6.426;2022-07-04T15:09:53;2.63;;;1.10;;
63005;SDS011;53704;52.532;6.426;2022-07-04T15:12:19;10.57;;;0.80;;